createdAt,value
2022-12-03T00:01:07.251Z,21.60
2022-12-03T00:04:10.337Z,21.50
2022-12-03T00:07:13.544Z,22.20
2022-12-03T00:10:16.647Z,20.90
2022-12-03T00:13:19.637Z,21.73
2022-12-03T00:16:24.183Z,20.43
2022-12-03T00:19:27.349Z,19.20
2022-12-03T00:22:30.410Z,20.10
2022-12-03T00:25:33.462Z,20.83
2022-12-03T00:28:36.458Z,20.73
2022-12-03T00:31:42.244Z,17.70
2022-12-03T00:34:45.658Z,18.67
2022-12-03T00:37:48.719Z,19.27
2022-12-03T00:40:51.786Z,18.57
2022-12-03T00:43:57.509Z,17.90
2022-12-03T00:47:01.981Z,17.97
2022-12-03T00:50:05.271Z,16.97
2022-12-03T00:53:08.339Z,19.57
2022-12-03T00:56:11.355Z,18.23
2022-12-03T00:59:14.440Z,17.40
2022-12-03T01:02:18.962Z,17.63
2022-12-03T01:05:22.282Z,16.87
2022-12-03T01:08:25.407Z,17.07
2022-12-03T01:11:41.436Z,16.83
2022-12-03T01:14:44.487Z,17.63
2022-12-03T01:17:48.902Z,16.50
2022-12-03T01:20:51.984Z,16.07
2022-12-03T01:23:55.045Z,16.20
2022-12-03T01:26:58.108Z,15.63
2022-12-03T01:30:01.134Z,16.80
2022-12-03T01:33:04.619Z,15.27
2022-12-03T01:36:08.137Z,14.13
2022-12-03T01:39:11.149Z,14.57
2022-12-03T01:42:17.989Z,14.80
2022-12-03T01:45:24.163Z,15.33
2022-12-03T01:48:32.673Z,14.90
2022-12-03T01:51:35.804Z,14.20
2022-12-03T01:54:42.081Z,13.80
2022-12-03T01:57:48.790Z,14.90
2022-12-03T02:00:51.893Z,13.33
2022-12-03T02:03:56.311Z,11.93
2022-12-03T02:07:17.996Z,14.13
2022-12-03T02:10:26.708Z,12.67
2022-12-03T02:13:30.140Z,14.10
2022-12-03T02:16:35.665Z,13.27
2022-12-03T02:19:40.361Z,13.17
2022-12-03T02:22:49.599Z,12.67
2022-12-03T02:25:54.122Z,12.80
2022-12-03T02:28:57.745Z,11.87
2022-12-03T02:32:00.859Z,12.33
2022-12-03T02:35:03.933Z,12.20
2022-12-03T02:38:12.977Z,11.63
2022-12-03T02:41:34.084Z,11.57
2022-12-03T02:44:37.154Z,12.07
2022-12-03T02:47:44.950Z,12.70
2022-12-03T02:50:52.095Z,11.30
2022-12-03T02:53:57.405Z,11.00
2022-12-03T02:57:02.286Z,11.50
2022-12-03T03:00:06.172Z,11.80
2022-12-03T03:03:10.198Z,10.80
2022-12-03T03:06:14.096Z,10.70
2022-12-03T03:09:17.138Z,9.97
2022-12-03T03:12:21.506Z,9.70
2022-12-03T03:15:25.516Z,10.17
2022-12-03T03:18:28.532Z,10.20
2022-12-03T03:21:31.934Z,8.90
2022-12-03T03:24:34.999Z,9.70
2022-12-03T03:27:40.242Z,9.73
2022-12-03T03:30:59.556Z,9.90
2022-12-03T03:34:02.701Z,10.00
2022-12-03T03:37:05.938Z,9.30
2022-12-03T03:40:10.088Z,9.63
2022-12-03T03:43:15.025Z,9.03
2022-12-03T03:46:20.045Z,9.90
2022-12-03T03:49:23.698Z,9.10
2022-12-03T03:52:27.049Z,9.70
2022-12-03T03:55:31.089Z,8.87
2022-12-03T03:58:35.896Z,8.50
2022-12-03T04:01:39.365Z,8.87
2022-12-03T04:04:42.426Z,7.93
2022-12-03T04:07:45.562Z,8.07
2022-12-03T04:11:06.134Z,8.40
2022-12-03T04:14:10.677Z,8.43
2022-12-03T04:17:13.790Z,8.20
2022-12-03T04:20:16.988Z,8.33
2022-12-03T04:23:18.954Z,7.40
2022-12-03T04:26:39.457Z,7.67
2022-12-03T04:29:43.877Z,8.00
2022-12-03T04:33:04.175Z,7.93
2022-12-03T04:36:07.516Z,8.20
2022-12-03T04:39:10.548Z,7.23
2022-12-03T04:42:13.605Z,7.60
2022-12-03T04:45:18.068Z,7.30
2022-12-03T04:48:21.157Z,7.43
2022-12-03T04:51:24.228Z,8.47
2022-12-03T04:54:27.507Z,7.97
2022-12-03T04:57:30.490Z,8.53
2022-12-03T05:00:34.973Z,7.93
2022-12-03T05:03:37.990Z,7.87
2022-12-03T05:06:41.513Z,8.10
2022-12-03T05:09:44.574Z,7.47
2022-12-03T05:12:47.642Z,8.10
2022-12-03T05:15:52.097Z,7.30
2022-12-03T05:18:55.092Z,7.50
2022-12-03T05:21:58.246Z,9.33
2022-12-03T05:25:01.311Z,6.97
2022-12-03T05:28:05.144Z,6.20
2022-12-03T05:31:10.023Z,6.27
2022-12-03T05:34:13.046Z,6.13
2022-12-03T05:37:16.206Z,6.73
2022-12-03T05:40:20.011Z,6.57
2022-12-03T05:43:22.077Z,5.40
2022-12-03T05:46:26.557Z,10.77
2022-12-03T05:49:29.645Z,7.87
2022-12-03T05:52:32.651Z,6.73
2022-12-03T05:55:35.729Z,5.40
2022-12-03T05:58:38.788Z,4.70
2022-12-03T06:01:43.286Z,6.37
2022-12-03T06:04:46.471Z,4.67
2022-12-03T06:07:50.582Z,5.90
2022-12-03T06:10:53.688Z,5.00
2022-12-03T06:13:56.894Z,5.77
2022-12-03T06:17:01.367Z,6.60
2022-12-03T06:20:05.445Z,7.77
2022-12-03T06:23:08.599Z,8.20
2022-12-03T06:26:11.692Z,7.63
2022-12-03T06:29:14.756Z,9.07
2022-12-03T06:32:19.177Z,10.20
2022-12-03T06:35:22.176Z,9.23
2022-12-03T06:38:25.205Z,9.10
2022-12-03T06:41:28.212Z,12.07
2022-12-03T06:44:31.308Z,11.03
2022-12-03T06:47:35.731Z,11.57
2022-12-03T06:50:38.795Z,11.97
2022-12-03T06:53:41.880Z,11.90
2022-12-03T06:56:45.643Z,13.27
2022-12-03T06:59:48.849Z,14.10
2022-12-03T07:02:53.285Z,14.60
2022-12-03T07:05:56.417Z,15.73
2022-12-03T07:08:59.534Z,16.40
2022-12-03T07:12:02.612Z,17.50
2022-12-03T07:15:06.435Z,17.33
2022-12-03T07:18:10.856Z,17.80
2022-12-03T07:21:13.842Z,19.87
2022-12-03T07:24:16.932Z,20.70
2022-12-03T07:27:19.988Z,20.70
2022-12-03T07:30:25.577Z,20.90
2022-12-03T07:33:30.478Z,21.90
2022-12-03T07:36:33.461Z,22.33
2022-12-03T07:39:36.632Z,23.80
2022-12-03T07:42:39.706Z,25.20
2022-12-03T07:45:42.806Z,25.43
2022-12-03T07:48:47.449Z,25.27
2022-12-03T07:51:54.307Z,22.77
2022-12-03T07:54:57.441Z,24.03
2022-12-03T07:58:00.462Z,23.17
2022-12-03T08:01:03.588Z,23.40
2022-12-03T08:04:08.197Z,23.10
2022-12-03T08:07:11.253Z,22.27
2022-12-03T09:20:11.953Z,188.77
2022-12-03T09:23:14.860Z,192.60
2022-12-03T09:26:20.759Z,191.50
2022-12-03T09:29:23.594Z,191.43
2022-12-03T09:32:29.499Z,187.30
2022-12-03T09:35:36.778Z,202.70
2022-12-03T09:38:44.439Z,197.23
2022-12-03T09:41:54.427Z,197.70
2022-12-03T09:45:00.033Z,196.07
2022-12-03T09:48:06.107Z,203.57
2022-12-03T09:51:10.822Z,196.93
2022-12-03T09:54:22.233Z,196.30
2022-12-03T09:57:25.109Z,190.83
2022-12-03T10:00:29.231Z,184.97
2022-12-03T10:03:33.102Z,191.67
2022-12-03T10:06:45.557Z,182.77
2022-12-03T10:09:49.035Z,174.87
2022-12-03T10:12:52.073Z,175.03
2022-12-03T10:15:58.779Z,173.33
2022-12-03T10:41:34.100Z,148.27
2022-12-03T10:44:38.222Z,144.30
2022-12-03T10:47:41.216Z,143.73
2022-12-03T10:50:53.893Z,141.73
2022-12-03T10:53:56.707Z,133.43
2022-12-03T10:56:59.557Z,132.83
2022-12-03T11:00:03.733Z,132.13
2022-12-03T11:03:07.588Z,126.90
2022-12-03T11:06:14.850Z,123.77
2022-12-03T11:09:19.537Z,126.60
2022-12-03T11:12:23.932Z,118.70
2022-12-03T11:15:47.355Z,116.23
2022-12-03T11:19:01.077Z,114.87
2022-12-03T11:22:26.309Z,178.20
2022-12-03T11:25:47.186Z,162.57
2022-12-03T11:28:54.224Z,159.13
2022-12-03T11:31:58.701Z,157.37
2022-12-03T11:35:01.645Z,151.97
2022-12-03T11:38:19.403Z,147.73
2022-12-03T11:41:26.984Z,137.80
2022-12-03T11:44:31.636Z,140.63
2022-12-03T11:47:38.421Z,132.03
2022-12-03T11:50:42.967Z,130.50
2022-12-03T11:53:46.252Z,124.90
2022-12-03T11:56:50.258Z,120.60
2022-12-03T12:00:00.405Z,122.80
2022-12-03T12:03:05.008Z,121.10
2022-12-03T12:06:09.114Z,122.67
2022-12-03T12:09:12.094Z,123.23
2022-12-03T12:12:29.876Z,117.17
2022-12-03T12:15:45.364Z,115.47
2022-12-03T12:18:55.029Z,111.63
2022-12-03T12:22:13.496Z,106.17
2022-12-03T12:25:34.982Z,101.40
2022-12-03T12:28:37.750Z,103.70
2022-12-03T12:31:40.591Z,98.47
2022-12-03T12:34:45.745Z,91.70
2022-12-03T12:37:55.015Z,94.60
2022-12-03T12:41:03.691Z,89.87
2022-12-03T12:44:09.815Z,83.10
2022-12-03T12:47:13.612Z,85.57
2022-12-03T12:50:18.394Z,79.40
2022-12-03T12:53:23.186Z,81.30
2022-12-03T12:56:27.091Z,76.50
2022-12-03T12:59:30.073Z,76.20
2022-12-03T13:02:44.458Z,76.50
2022-12-03T13:05:49.624Z,71.80
2022-12-03T13:08:53.957Z,70.83
2022-12-03T13:11:58.221Z,69.07
2022-12-03T13:15:01.818Z,67.17
2022-12-03T13:18:12.037Z,65.97
2022-12-03T13:21:20.634Z,63.63
2022-12-03T13:24:29.553Z,60.27
2022-12-03T13:27:32.472Z,60.90
2022-12-03T13:30:35.255Z,74.00
2022-12-03T13:33:38.043Z,75.70
2022-12-03T13:36:44.110Z,79.70
2022-12-03T13:39:48.041Z,71.20
2022-12-03T13:42:50.881Z,73.27
2022-12-03T13:45:54.346Z,71.23
2022-12-03T13:49:00.444Z,69.23
2022-12-03T13:52:10.846Z,68.10
2022-12-03T13:55:16.183Z,66.43
2022-12-03T13:58:19.281Z,63.40
2022-12-03T14:01:22.260Z,64.90
2022-12-03T14:04:25.141Z,63.17
2022-12-03T14:07:29.341Z,61.33
2022-12-03T14:10:32.134Z,59.47
2022-12-03T14:13:34.931Z,62.07
2022-12-03T14:16:37.733Z,63.10
2022-12-03T14:19:40.637Z,60.73
2022-12-03T14:22:44.837Z,61.37
2022-12-03T14:25:47.529Z,60.07
2022-12-03T14:28:50.364Z,58.30
2022-12-03T14:31:53.369Z,57.47
2022-12-03T14:34:56.808Z,56.37
2022-12-03T14:38:01.191Z,57.53
2022-12-03T14:41:04.307Z,54.27
2022-12-03T14:44:07.246Z,54.60
2022-12-03T14:47:10.464Z,55.40
2022-12-03T14:50:14.601Z,53.53
2022-12-03T14:53:21.499Z,55.13
2022-12-03T14:56:28.757Z,54.17
2022-12-03T14:59:31.747Z,52.67
2022-12-03T15:02:34.820Z,52.80
2022-12-03T15:05:37.837Z,51.63
2022-12-03T15:08:42.127Z,50.40
2022-12-03T15:11:46.663Z,50.67
2022-12-03T15:14:49.869Z,52.17
2022-12-03T15:17:52.831Z,48.83
2022-12-03T15:20:55.743Z,47.67
2022-12-03T15:24:00.484Z,46.30
2022-12-03T15:27:03.392Z,47.63
2022-12-03T15:30:07.622Z,45.17
2022-12-03T15:33:10.584Z,45.57
2022-12-03T15:36:13.533Z,42.80
2022-12-03T15:39:18.011Z,44.20
2022-12-03T15:42:21.359Z,42.20
2022-12-03T15:45:24.237Z,41.30
2022-12-03T15:48:27.327Z,41.40
2022-12-03T15:51:30.276Z,41.20
2022-12-03T15:54:34.567Z,40.57
2022-12-03T15:57:37.525Z,38.47
2022-12-03T16:00:40.447Z,39.27
2022-12-03T16:03:43.323Z,36.43
2022-12-03T16:06:46.284Z,38.80
2022-12-03T16:09:50.666Z,36.53
2022-12-03T16:12:53.539Z,36.83
2022-12-03T16:15:56.414Z,35.77
2022-12-03T16:18:59.347Z,35.80
2022-12-03T16:22:02.267Z,35.80
2022-12-03T16:25:07.356Z,34.47
2022-12-03T16:28:10.328Z,34.53
2022-12-03T16:31:13.440Z,34.17
2022-12-03T16:34:32.874Z,33.70
2022-12-03T16:37:44.245Z,31.90
2022-12-03T16:40:54.433Z,31.67
2022-12-03T16:44:13.069Z,30.73
2022-12-03T16:47:16.628Z,30.00
2022-12-03T16:50:29.185Z,31.63
2022-12-03T16:53:40.792Z,28.60
2022-12-03T16:56:45.597Z,30.93
2022-12-03T16:59:54.428Z,31.30
2022-12-03T17:03:10.483Z,29.77
2022-12-03T17:06:14.087Z,28.57
2022-12-03T17:09:23.485Z,29.80
2022-12-03T17:12:42.297Z,27.90
2022-12-03T17:15:51.668Z,27.60
2022-12-03T17:18:54.549Z,26.33
2022-12-03T17:21:57.420Z,26.87
2022-12-03T17:25:00.158Z,26.47
2022-12-03T17:28:04.653Z,26.83
2022-12-03T17:31:07.665Z,25.43
2022-12-03T17:34:10.674Z,26.90
2022-12-03T17:37:13.516Z,24.67
2022-12-03T17:40:17.311Z,23.80
2022-12-03T17:43:21.513Z,26.00
2022-12-03T17:46:24.352Z,24.17
2022-12-03T17:49:31.579Z,24.53
2022-12-03T17:52:34.631Z,24.43
2022-12-03T17:55:44.241Z,23.10
2022-12-03T17:58:49.251Z,23.20
2022-12-03T18:01:52.038Z,24.37
2022-12-03T18:04:54.792Z,22.03
2022-12-03T18:07:57.644Z,22.90
2022-12-03T18:11:00.776Z,22.50
2022-12-03T18:14:09.206Z,21.23
2022-12-03T18:17:15.029Z,20.97
2022-12-03T18:20:18.516Z,21.47
2022-12-03T18:23:21.487Z,20.83
2022-12-03T18:26:24.248Z,21.40
2022-12-03T18:29:28.399Z,21.33
2022-12-03T18:32:31.163Z,20.93
2022-12-03T18:35:33.941Z,21.00
2022-12-03T18:38:36.681Z,20.80
2022-12-03T18:41:40.193Z,20.17
2022-12-03T18:44:49.675Z,21.23
2022-12-03T18:47:55.475Z,22.30
2022-12-03T18:51:00.240Z,21.73
2022-12-03T18:54:04.988Z,20.63
2022-12-03T18:57:08.906Z,20.87
2022-12-03T19:00:15.475Z,19.43
2022-12-03T19:03:19.394Z,19.00
2022-12-03T19:06:23.771Z,19.17
2022-12-03T19:09:27.792Z,18.30
2022-12-03T19:12:33.103Z,18.67
2022-12-03T19:15:39.285Z,19.27
2022-12-03T19:18:42.278Z,18.97
2022-12-03T19:21:45.223Z,16.93
2022-12-03T19:24:48.121Z,219.77
2022-12-03T19:27:55.088Z,1193.40
2022-12-03T19:31:00.582Z,1178.20
2022-12-03T19:34:03.708Z,1157.07
2022-12-03T19:37:06.841Z,1119.37
2022-12-03T19:40:11.489Z,1043.73
2022-12-03T19:43:14.377Z,1019.43
2022-12-03T19:46:19.655Z,984.20
2022-12-03T19:49:22.681Z,957.27
2022-12-03T19:52:25.849Z,929.60
2022-12-03T19:55:28.862Z,904.20
2022-12-03T19:58:31.815Z,884.53
2022-12-03T20:01:40.451Z,859.40
2022-12-03T20:04:43.475Z,833.30
2022-12-03T20:07:46.577Z,740.83
2022-12-03T20:10:49.561Z,587.23
2022-12-03T20:13:54.057Z,574.60
2022-12-03T20:16:58.492Z,508.03
2022-12-03T20:20:01.559Z,479.90
2022-12-03T20:23:04.514Z,448.40
2022-12-03T20:26:07.989Z,417.23
2022-12-03T20:29:10.913Z,377.70
2022-12-03T20:32:15.488Z,342.13
2022-12-03T20:35:18.484Z,304.30
2022-12-03T20:38:21.468Z,278.10
2022-12-03T20:41:24.724Z,248.20
2022-12-03T20:44:27.747Z,232.20
2022-12-03T20:47:32.027Z,215.43
2022-12-03T20:50:35.376Z,179.47
2022-12-03T20:53:38.242Z,168.30
2022-12-03T20:56:42.220Z,155.43
2022-12-03T20:59:45.051Z,138.47
2022-12-03T21:02:49.512Z,126.83
2022-12-03T21:05:59.502Z,118.63
2022-12-03T21:09:02.645Z,108.30
2022-12-03T21:12:05.840Z,103.43
2022-12-03T21:15:09.251Z,80.93
2022-12-03T21:18:14.590Z,79.17
2022-12-03T21:21:18.092Z,68.17
2022-12-03T21:24:21.103Z,74.53
2022-12-03T21:27:24.067Z,66.53
2022-12-03T21:30:26.991Z,65.67
2022-12-03T21:33:31.971Z,53.37
2022-12-03T21:36:34.868Z,49.90
2022-12-03T21:39:37.988Z,44.63
2022-12-03T21:42:40.930Z,46.00
2022-12-03T21:45:43.950Z,40.13
2022-12-03T21:48:50.174Z,33.30
2022-12-03T21:51:53.100Z,32.60
2022-12-03T21:54:56.138Z,29.60
2022-12-03T21:57:59.088Z,29.60
2022-12-03T22:01:02.055Z,26.17
2022-12-03T22:04:06.791Z,24.30
2022-12-03T22:07:09.753Z,23.43
2022-12-03T22:10:12.996Z,22.77
2022-12-03T22:13:15.836Z,20.17
2022-12-03T22:16:20.620Z,19.83
2022-12-03T22:19:25.191Z,18.03
2022-12-03T22:22:28.105Z,18.80
2022-12-03T22:25:31.827Z,16.30
2022-12-03T22:28:35.461Z,15.50
2022-12-03T22:31:38.466Z,14.60
2022-12-03T22:34:43.945Z,15.93
2022-12-03T22:37:46.827Z,13.87
2022-12-03T22:40:49.897Z,15.10
2022-12-03T22:43:52.863Z,13.40
2022-12-03T22:46:55.887Z,13.73
2022-12-03T22:50:00.350Z,12.37
2022-12-03T22:53:03.248Z,12.20
2022-12-03T22:56:06.436Z,13.67
2022-12-03T22:59:09.445Z,12.67
2022-12-03T23:02:12.336Z,13.47
2022-12-03T23:05:16.784Z,12.77
2022-12-03T23:08:20.937Z,12.70
2022-12-03T23:11:23.993Z,13.23
2022-12-03T23:14:26.936Z,12.27
2022-12-03T23:17:29.841Z,12.43
2022-12-03T23:20:34.128Z,11.43
2022-12-03T23:23:37.142Z,12.00
2022-12-03T23:26:40.097Z,10.57
2022-12-03T23:29:43.056Z,10.90
2022-12-03T23:32:46.028Z,11.23
2022-12-03T23:35:50.590Z,10.93
2022-12-03T23:38:53.536Z,11.40
2022-12-03T23:41:56.417Z,10.87
2022-12-03T23:44:59.352Z,10.90
2022-12-03T23:48:02.579Z,11.37
2022-12-03T23:51:11.621Z,11.40
2022-12-03T23:54:14.764Z,10.10
2022-12-03T23:57:18.355Z,10.07
